createdAt,value
2019-03-04T00:02:05.682Z,94883.34
2019-03-04T00:04:32.215Z,94883.34
2019-03-04T00:06:58.751Z,94876.70
2019-03-04T00:09:25.389Z,94885.95
2019-03-04T00:11:51.926Z,94879.29
2019-03-04T00:14:18.359Z,94875.91
2019-03-04T00:16:44.895Z,94897.23
2019-03-04T00:19:11.329Z,94886.50
2019-03-04T00:21:37.762Z,94882.34
2019-03-04T00:24:04.195Z,94887.38
2019-03-04T00:26:30.732Z,94879.29
2019-03-04T00:28:57.269Z,94892.47
2019-03-04T00:31:24.213Z,94875.55
2019-03-04T00:33:50.650Z,94880.72
2019-03-04T00:36:17.492Z,94879.56
2019-03-04T00:38:43.926Z,94871.20
2019-03-04T00:41:10.360Z,94865.91
2019-03-04T00:43:36.892Z,94842.95
2019-03-04T00:46:03.428Z,94842.95
2019-03-04T00:48:29.863Z,94835.05
2019-03-04T00:50:56.295Z,94830.51
2019-03-04T00:53:22.728Z,94820.72
2019-03-04T00:55:49.265Z,94820.82
2019-03-04T00:58:15.801Z,94813.20
2019-03-04T01:00:42.236Z,94795.99
2019-03-04T01:03:08.675Z,94799.61
2019-03-04T01:05:36.191Z,94791.44
2019-03-04T01:08:03.823Z,94776.43
2019-03-04T01:10:31.728Z,94767.16
2019-03-04T01:12:59.348Z,94757.81
2019-03-04T01:15:26.738Z,94764.06
2019-03-04T01:17:53.207Z,94753.36
2019-03-04T01:20:19.743Z,94753.96
2019-03-04T01:22:46.383Z,94748.23
2019-03-04T01:25:15.645Z,94748.23
2019-03-04T01:27:42.116Z,94743.92
2019-03-04T01:30:18.073Z,94741.73
2019-03-04T01:32:44.506Z,94741.20
2019-03-04T01:35:11.247Z,94736.98
2019-03-04T01:37:37.680Z,94724.61
2019-03-04T01:40:10.721Z,94718.01
2019-03-04T01:42:37.205Z,94705.26
2019-03-04T01:45:07.139Z,94700.50
2019-03-04T01:47:33.657Z,94686.55
2019-03-04T01:50:00.305Z,94670.83
2019-03-04T01:52:26.731Z,94657.77
2019-03-04T01:54:53.263Z,94646.53
2019-03-04T01:57:19.697Z,94633.41
2019-03-04T01:59:46.129Z,94632.27
2019-03-04T02:02:12.565Z,94639.22
2019-03-04T02:04:39.104Z,94634.83
2019-03-04T02:07:05.637Z,94634.83
2019-03-04T02:09:32.376Z,94638.22
2019-03-04T02:11:59.014Z,94636.13
2019-03-04T02:14:25.458Z,94618.01
2019-03-04T02:16:51.983Z,94614.52
2019-03-04T02:19:18.419Z,94613.97
2019-03-04T02:21:44.854Z,94591.91
2019-03-04T02:24:19.088Z,94581.93
2019-03-04T02:26:45.604Z,94576.95
2019-03-04T02:29:12.037Z,94565.91
2019-03-04T02:31:38.584Z,94543.03
2019-03-04T02:34:05.011Z,94543.03
2019-03-04T02:36:31.546Z,94542.06
2019-03-04T02:38:57.977Z,94549.78
2019-03-04T02:41:24.417Z,94544.75
2019-03-04T02:43:50.945Z,94551.88
2019-03-04T02:46:17.584Z,94554.20
2019-03-04T02:48:44.032Z,94554.20
2019-03-04T02:51:10.558Z,94543.51
2019-03-04T02:53:36.988Z,94539.30
2019-03-04T02:56:03.527Z,94537.20
2019-03-04T02:58:30.059Z,94520.27
2019-03-04T03:00:56.499Z,94520.27
2019-03-04T03:03:23.046Z,94513.19
2019-03-04T03:05:49.563Z,94497.05
2019-03-04T03:08:15.997Z,94490.29
2019-03-04T03:10:42.636Z,94484.67
2019-03-04T03:13:09.274Z,94476.15
2019-03-04T03:15:35.913Z,94476.15
2019-03-04T03:18:02.550Z,94450.64
2019-03-04T03:20:29.086Z,94439.73
2019-03-04T03:22:55.622Z,94439.73
2019-03-04T03:25:22.159Z,94437.33
2019-03-04T03:27:48.591Z,94434.17
2019-03-04T03:30:19.535Z,94445.26
2019-03-04T03:32:46.171Z,94467.91
2019-03-04T03:35:12.827Z,94437.69
2019-03-04T03:37:39.346Z,94437.69
2019-03-04T03:40:14.359Z,94434.12
2019-03-04T03:42:40.819Z,94423.73
2019-03-04T03:45:08.695Z,94423.73
2019-03-04T03:47:35.216Z,94426.34
2019-03-04T03:50:01.769Z,94426.27
2019-03-04T03:52:28.287Z,94443.56
2019-03-04T03:54:54.822Z,94424.58
2019-03-04T03:57:21.361Z,94418.89
2019-03-04T03:59:48.002Z,94415.73
2019-03-04T04:02:14.636Z,94390.68
2019-03-04T04:04:41.272Z,94376.62
2019-03-04T04:07:07.708Z,94376.62
2019-03-04T04:09:34.143Z,94401.04
2019-03-04T04:12:00.779Z,94416.01
2019-03-04T04:14:29.340Z,94418.77
2019-03-04T04:16:55.694Z,94403.67
2019-03-04T04:19:22.130Z,94404.86
2019-03-04T04:21:48.560Z,94390.58
2019-03-04T04:24:14.995Z,94435.48
2019-03-04T04:26:41.530Z,94462.48
2019-03-04T04:29:09.705Z,94429.71
2019-03-04T04:31:36.242Z,94411.81
2019-03-04T04:34:02.780Z,94409.86
2019-03-04T04:36:29.322Z,94456.17
2019-03-04T04:38:55.848Z,94458.70
2019-03-04T04:41:22.281Z,94443.05
2019-03-04T04:43:48.716Z,94450.90
2019-03-04T04:46:15.457Z,94462.88
2019-03-04T04:48:41.892Z,94446.17
2019-03-04T04:51:08.322Z,94463.18
2019-03-04T04:53:34.757Z,94463.18
2019-03-04T04:56:01.190Z,94464.02
2019-03-04T04:58:27.626Z,94446.31
2019-03-04T05:00:54.057Z,94447.43
2019-03-04T05:03:20.490Z,94460.02
2019-03-04T05:05:47.027Z,94476.76
2019-03-04T05:08:13.460Z,94453.97
2019-03-04T05:10:40.209Z,94423.48
2019-03-04T05:13:06.741Z,94428.06
2019-03-04T05:15:33.278Z,94424.21
2019-03-04T05:18:01.558Z,94425.00
2019-03-04T05:20:27.984Z,94438.41
2019-03-04T05:22:54.621Z,94426.30
2019-03-04T05:25:21.259Z,94415.92
2019-03-04T05:27:47.694Z,94415.44
2019-03-04T05:30:21.296Z,94417.42
2019-03-04T05:32:47.937Z,94405.58
2019-03-04T05:35:14.468Z,94405.58
2019-03-04T05:37:41.005Z,94418.88
2019-03-04T05:40:20.649Z,94412.20
2019-03-04T05:42:47.081Z,94401.44
2019-03-04T05:45:15.766Z,94390.49
2019-03-04T05:47:42.611Z,94388.40
2019-03-04T05:50:20.616Z,94400.20
2019-03-04T05:52:47.068Z,94408.06
2019-03-04T05:55:14.508Z,94422.44
2019-03-04T05:57:41.248Z,94425.80
2019-03-04T06:00:13.518Z,94405.30
2019-03-04T06:02:40.060Z,94408.38
2019-03-04T06:05:08.609Z,94403.88
2019-03-04T06:07:39.886Z,94426.27
2019-03-04T06:10:08.673Z,94426.69
2019-03-04T06:12:35.311Z,94429.14
2019-03-04T06:15:02.257Z,94434.08
2019-03-04T06:17:28.694Z,94427.28
2019-03-04T06:19:55.236Z,94454.06
2019-03-04T06:22:22.071Z,94451.67
2019-03-04T06:24:48.709Z,94451.67
2019-03-04T06:27:15.244Z,94452.31
2019-03-04T06:29:41.882Z,94452.31
2019-03-04T06:32:08.521Z,94457.61
2019-03-04T06:34:35.055Z,94447.20
2019-03-04T06:37:01.490Z,94460.78
2019-03-04T06:39:28.026Z,94469.69
2019-03-04T06:41:54.463Z,94481.27
2019-03-04T06:44:20.997Z,94509.06
2019-03-04T06:46:47.433Z,94513.08
2019-03-04T06:49:14.070Z,94522.56
2019-03-04T06:51:40.606Z,94509.94
2019-03-04T06:54:16.972Z,94512.72
2019-03-04T06:57:02.346Z,94518.77
2019-03-04T06:59:49.262Z,94514.20
2019-03-04T07:02:29.687Z,94514.20
2019-03-04T07:05:14.798Z,94528.95
2019-03-04T07:07:41.330Z,94531.13
2019-03-04T07:10:08.276Z,94530.72
2019-03-04T07:12:34.915Z,94530.72
2019-03-04T07:15:01.552Z,94529.73
2019-03-04T07:17:27.987Z,94529.73
2019-03-04T07:20:04.093Z,94553.73
2019-03-04T07:22:30.580Z,94551.69
2019-03-04T07:24:57.033Z,94555.98
2019-03-04T07:27:23.550Z,94564.53
2019-03-04T07:29:49.984Z,94567.98
2019-03-04T07:32:16.724Z,94572.48
2019-03-04T07:34:43.261Z,94559.55
2019-03-04T07:37:09.799Z,94573.47
2019-03-04T07:39:36.332Z,94585.40
2019-03-04T07:42:02.972Z,94592.37
2019-03-04T07:44:29.506Z,94581.87
2019-03-04T07:46:55.940Z,94573.22
2019-03-04T07:49:22.482Z,94586.70
2019-03-04T07:51:49.319Z,94600.37
2019-03-04T07:54:15.758Z,94611.23
2019-03-04T07:56:42.294Z,94609.77
2019-03-04T07:59:08.721Z,94635.24
2019-03-04T08:01:35.157Z,94654.40
2019-03-04T08:04:01.594Z,94653.83
2019-03-04T08:06:28.125Z,94667.41
2019-03-04T08:09:01.215Z,94650.33
2019-03-04T08:12:06.697Z,94657.86
2019-03-04T08:14:33.302Z,94656.55
2019-03-04T08:16:59.739Z,94640.38
2019-03-04T08:19:26.167Z,94651.47
2019-03-04T08:21:52.807Z,94650.86
2019-03-04T08:24:19.244Z,94648.13
2019-03-04T08:26:45.673Z,94661.64
2019-03-04T08:29:12.108Z,94655.03
2019-03-04T08:31:38.545Z,94660.23
2019-03-04T08:34:04.986Z,94684.60
2019-03-04T08:36:32.536Z,94710.91
2019-03-04T08:38:58.969Z,94720.73
2019-03-04T08:41:25.402Z,94726.67
2019-03-04T08:43:51.836Z,94724.98
2019-03-04T08:46:18.372Z,94712.02
2019-03-04T08:48:45.114Z,94717.61
2019-03-04T08:51:11.558Z,94703.02
2019-03-04T08:53:38.080Z,94723.66
2019-03-04T08:56:04.621Z,94739.57
2019-03-04T08:58:31.156Z,94734.16
2019-03-04T09:00:57.897Z,94734.16
2019-03-04T09:03:24.331Z,94744.05
2019-03-04T09:05:52.696Z,94732.47
2019-03-04T09:08:19.139Z,94735.45
2019-03-04T09:10:45.675Z,94753.45
2019-03-04T09:13:12.314Z,94755.98
2019-03-04T09:15:39.055Z,94755.98
2019-03-04T09:18:06.922Z,94747.32
2019-03-04T09:20:33.358Z,94748.30
2019-03-04T09:23:00.609Z,94756.56
2019-03-04T09:25:45.891Z,94742.55
2019-03-04T09:28:12.323Z,94742.55
2019-03-04T09:30:38.857Z,94726.71
2019-03-04T09:33:05.491Z,94744.39
2019-03-04T09:35:32.773Z,94750.25
2019-03-04T09:37:59.384Z,94752.48
2019-03-04T09:40:33.711Z,94756.97
2019-03-04T09:43:01.366Z,94775.97
2019-03-04T09:45:38.054Z,94775.97
2019-03-04T09:47:56.385Z,94749.52
2019-03-04T09:50:25.995Z,94749.52
2019-03-04T09:52:53.960Z,94776.69
2019-03-04T09:55:20.597Z,94797.64
2019-03-04T09:57:47.238Z,94811.66
2019-03-04T10:00:29.083Z,94814.20
2019-03-04T10:03:23.314Z,94816.34
2019-03-04T10:06:22.311Z,94840.59
2019-03-04T10:09:01.057Z,94844.77
2019-03-04T10:11:34.226Z,94866.28
2019-03-04T10:14:19.649Z,94875.11
2019-03-04T10:17:18.293Z,94876.36
2019-03-04T10:19:56.798Z,94881.84
2019-03-04T10:22:39.369Z,94892.09
2019-03-04T10:25:41.393Z,94883.86
2019-03-04T10:28:23.595Z,94880.94
2019-03-04T10:31:02.519Z,94901.73
2019-03-04T10:33:52.248Z,94908.13
2019-03-04T10:36:42.183Z,94914.82
2019-03-04T10:39:22.401Z,94914.67
2019-03-04T10:42:13.814Z,94896.20
2019-03-04T10:44:46.850Z,94909.00
2019-03-04T10:47:13.383Z,94923.65
2019-03-04T10:49:40.022Z,94924.31
2019-03-04T10:52:06.665Z,94917.37
2019-03-04T10:54:33.201Z,94921.77
2019-03-04T10:56:59.737Z,94927.34
2019-03-04T10:59:26.283Z,94925.47
2019-03-04T11:01:52.702Z,94902.68
2019-03-04T11:04:19.239Z,94914.19
2019-03-04T11:06:45.676Z,94918.16
2019-03-04T11:09:12.319Z,94916.55
2019-03-04T11:11:39.255Z,94887.30
2019-03-04T11:14:05.893Z,94895.97
2019-03-04T11:16:32.534Z,94870.34
2019-03-04T11:18:58.964Z,94837.42
2019-03-04T11:21:25.399Z,94851.30
2019-03-04T11:23:51.833Z,94871.50
2019-03-04T11:26:18.471Z,94853.00
2019-03-04T11:28:44.904Z,94845.47
2019-03-04T11:31:11.441Z,94849.05
2019-03-04T11:33:37.875Z,94848.97
2019-03-04T11:36:04.410Z,94828.27
2019-03-04T11:38:39.736Z,94811.42
2019-03-04T11:41:08.029Z,94821.96
2019-03-04T11:43:34.463Z,94836.73
2019-03-04T11:46:01.108Z,94845.65
2019-03-04T11:48:27.536Z,94840.02
2019-03-04T11:50:53.967Z,94844.65
2019-03-04T11:53:20.503Z,94852.16
2019-03-04T11:55:47.141Z,94860.17
2019-03-04T11:58:13.576Z,94855.77
2019-03-04T12:00:51.479Z,94851.24
2019-03-04T12:03:17.911Z,94846.33
2019-03-04T12:05:44.448Z,94836.80
2019-03-04T12:08:11.297Z,94829.42
2019-03-04T12:10:37.724Z,94828.83
2019-03-04T12:13:05.181Z,94837.53
2019-03-04T12:15:32.024Z,94822.97
2019-03-04T12:17:58.561Z,94813.80
2019-03-04T12:20:25.404Z,94795.05
2019-03-04T12:22:51.837Z,94791.72
2019-03-04T12:25:21.753Z,94791.98
2019-03-04T12:27:48.287Z,94788.19
2019-03-04T12:30:20.457Z,94791.41
2019-03-04T12:32:47.298Z,94797.16
2019-03-04T12:35:15.065Z,94786.77
2019-03-04T12:37:41.497Z,94783.26
2019-03-04T12:40:10.982Z,94803.28
2019-03-04T12:42:37.440Z,94814.25
2019-03-04T12:45:07.252Z,94822.92
2019-03-04T12:47:33.683Z,94834.40
2019-03-04T12:50:00.343Z,94826.80
2019-03-04T12:52:26.962Z,94820.60
2019-03-04T12:54:53.601Z,94826.91
2019-03-04T12:57:20.545Z,94805.25
2019-03-04T12:59:47.081Z,94805.25
2019-03-04T13:02:13.620Z,94806.38
2019-03-04T13:04:40.462Z,94791.81
2019-03-04T13:07:07.001Z,94788.28
2019-03-04T13:09:33.532Z,94772.66
2019-03-04T13:12:00.077Z,94772.66
2019-03-04T13:14:26.706Z,94771.82
2019-03-04T13:16:53.321Z,94775.60
2019-03-04T13:19:19.781Z,94766.13
2019-03-04T13:21:46.317Z,94759.09
2019-03-04T13:24:12.854Z,94765.20
2019-03-04T13:26:39.383Z,94759.11
2019-03-04T13:29:06.637Z,94763.77
2019-03-04T13:31:33.173Z,94761.42
2019-03-04T13:33:59.605Z,94763.59
2019-03-04T13:36:26.146Z,94767.28
2019-03-04T13:38:52.579Z,94765.01
2019-03-04T13:41:19.119Z,94765.52
2019-03-04T13:43:45.545Z,94759.56
2019-03-04T13:46:12.183Z,94749.06
2019-03-04T13:48:38.821Z,94735.20
2019-03-04T13:51:06.259Z,94735.20
2019-03-04T13:53:32.711Z,94731.11
2019-03-04T13:55:59.351Z,94740.64
2019-03-04T13:58:26.091Z,94714.22
2019-03-04T14:00:52.524Z,94714.22
2019-03-04T14:03:19.573Z,94735.38
2019-03-04T14:05:46.109Z,94735.38
2019-03-04T14:08:12.645Z,94707.58
2019-03-04T14:10:44.814Z,94736.03
2019-03-04T14:13:11.468Z,94735.94
2019-03-04T14:15:52.425Z,94716.47
2019-03-04T14:18:18.962Z,94730.03
2019-03-04T14:20:45.438Z,94739.77
2019-03-04T14:23:11.930Z,94761.48
2019-03-04T14:25:38.570Z,94750.11
2019-03-04T14:28:05.003Z,94775.52
2019-03-04T14:30:31.540Z,94779.66
2019-03-04T14:32:57.972Z,94781.35
2019-03-04T14:35:24.509Z,94781.47
2019-03-04T14:37:51.350Z,94809.55
2019-03-04T14:40:18.810Z,94802.95
2019-03-04T14:42:45.241Z,94811.90
2019-03-04T14:45:19.356Z,94800.78
2019-03-04T14:47:46.096Z,94796.84
2019-03-04T14:50:16.934Z,94815.40
2019-03-04T14:52:43.878Z,94813.13
2019-03-04T14:55:24.858Z,94810.30
2019-03-04T14:57:51.402Z,94815.16
2019-03-04T15:00:24.559Z,94815.25
2019-03-04T15:02:51.015Z,94814.20
2019-03-04T15:05:17.482Z,94820.84
2019-03-04T15:07:43.986Z,94813.62
2019-03-04T15:10:11.966Z,94831.04
2019-03-04T15:12:38.596Z,94852.48
2019-03-04T15:15:17.047Z,94819.59
2019-03-04T15:17:43.545Z,94821.53
2019-03-04T15:20:13.877Z,94811.61
2019-03-04T15:22:40.710Z,94825.49
2019-03-04T15:25:10.642Z,94825.49
2019-03-04T15:27:37.163Z,94837.84
2019-03-04T15:30:09.903Z,94845.61
2019-03-04T15:32:36.378Z,94843.19
2019-03-04T15:35:03.632Z,94857.48
2019-03-04T15:37:30.167Z,94866.95
2019-03-04T15:39:56.706Z,94863.02
2019-03-04T15:42:23.238Z,94858.61
2019-03-04T15:44:49.881Z,94859.11
2019-03-04T15:47:16.415Z,94861.11
2019-03-04T15:49:42.848Z,94865.42
2019-03-04T15:52:09.384Z,94853.33
2019-03-04T15:54:35.917Z,94848.00
2019-03-04T15:57:03.170Z,94836.83
2019-03-04T15:59:29.605Z,94836.83
2019-03-04T16:01:59.729Z,94854.69
2019-03-04T16:04:26.362Z,94856.80
2019-03-04T16:06:52.898Z,94853.33
2019-03-04T16:09:21.174Z,94854.76
2019-03-04T16:11:48.123Z,94852.88
2019-03-04T16:14:14.758Z,94863.88
2019-03-04T16:16:41.397Z,94850.86
2019-03-04T16:19:07.830Z,94870.59
2019-03-04T16:21:34.267Z,94864.87
2019-03-04T16:24:00.700Z,94870.59
2019-03-04T16:26:27.236Z,94886.09
2019-03-04T16:28:53.667Z,94886.09
2019-03-04T16:31:20.100Z,94871.16
2019-03-04T16:33:46.535Z,94881.59
2019-03-04T16:36:13.073Z,94886.59
2019-03-04T16:38:39.503Z,94880.14
2019-03-04T16:41:07.883Z,94885.35
2019-03-04T16:43:34.404Z,94883.91
2019-03-04T16:46:01.160Z,94890.56
2019-03-04T16:48:27.592Z,94893.83
2019-03-04T16:50:55.361Z,94897.95
2019-03-04T16:53:28.247Z,94902.01
2019-03-04T16:55:55.086Z,94906.13
2019-03-04T16:58:21.621Z,94908.79
2019-03-04T17:00:48.467Z,94908.22
2019-03-04T17:03:17.049Z,94916.46
2019-03-04T17:05:43.686Z,94916.46
2019-03-04T17:08:10.225Z,94925.42
2019-03-04T17:10:38.196Z,94931.50
2019-03-04T17:13:04.937Z,94934.25
2019-03-04T17:15:31.779Z,94938.30
2019-03-04T17:17:58.520Z,94953.70
2019-03-04T17:20:27.005Z,94940.77
2019-03-04T17:22:53.638Z,94940.62
2019-03-04T17:25:22.821Z,94939.44
2019-03-04T17:27:49.683Z,94941.02
2019-03-04T17:30:18.880Z,94937.72
2019-03-04T17:32:47.212Z,94930.61
2019-03-04T17:35:16.970Z,94930.20
2019-03-04T17:37:43.401Z,94932.97
2019-03-04T17:40:13.434Z,94934.97
2019-03-04T17:42:39.962Z,94934.27
2019-03-04T17:45:09.667Z,94943.44
2019-03-04T17:47:36.404Z,94946.76
2019-03-04T17:50:06.331Z,94953.84
2019-03-04T17:52:32.961Z,94955.86
2019-03-04T17:54:59.497Z,94963.73
2019-03-04T17:57:25.958Z,94963.09
2019-03-04T17:59:52.469Z,94971.63
2019-03-04T18:02:19.207Z,94977.09
2019-03-04T18:04:46.258Z,94973.66
2019-03-04T18:07:12.892Z,94972.70
2019-03-04T18:09:39.323Z,94971.84
2019-03-04T18:12:05.763Z,94983.84
2019-03-04T18:14:32.326Z,94990.69
2019-03-04T18:16:58.859Z,95011.70
2019-03-04T18:19:25.381Z,95013.92
2019-03-04T18:21:51.799Z,95014.61
2019-03-04T18:24:20.082Z,95004.06
2019-03-04T18:26:46.920Z,95006.13
2019-03-04T18:29:28.918Z,95012.80
2019-03-04T18:32:07.374Z,95021.33
2019-03-04T18:34:43.494Z,95028.42
2019-03-04T18:37:25.396Z,95022.53
2019-03-04T18:40:14.866Z,95032.53
2019-03-04T18:42:54.080Z,95031.80
2019-03-04T18:45:33.231Z,95042.19
2019-03-04T18:48:06.540Z,95051.81
2019-03-04T18:50:33.165Z,95060.69
2019-03-04T18:52:59.709Z,95060.42
2019-03-04T18:55:26.336Z,95061.77
2019-03-04T18:57:52.976Z,95061.86
2019-03-04T19:00:27.497Z,95066.86
2019-03-04T19:02:54.014Z,95066.77
2019-03-04T19:05:21.750Z,95067.15
2019-03-04T19:07:48.236Z,95068.31
2019-03-04T19:10:14.665Z,95066.86
2019-03-04T19:12:41.203Z,95070.77
2019-03-04T19:15:11.531Z,95077.55
2019-03-04T19:17:38.063Z,95072.41
2019-03-04T19:20:13.614Z,95075.58
2019-03-04T19:22:40.148Z,95074.11
2019-03-04T19:25:07.504Z,95078.63
2019-03-04T19:27:34.038Z,95087.22
2019-03-04T19:30:00.575Z,95083.93
2019-03-04T19:32:27.010Z,95092.91
2019-03-04T19:34:53.545Z,95104.23
2019-03-04T19:37:19.986Z,95098.63
2019-03-04T19:39:46.613Z,95105.59
2019-03-04T19:42:13.030Z,95103.52
2019-03-04T19:44:39.589Z,95112.66
2019-03-04T19:47:06.133Z,95117.16
2019-03-04T19:49:32.656Z,95113.97
2019-03-04T19:51:59.171Z,95126.70
2019-03-04T19:54:25.940Z,95122.47
2019-03-04T19:56:52.369Z,95131.06
2019-03-04T19:59:18.872Z,95139.05
2019-03-04T20:01:45.296Z,95142.26
2019-03-04T20:04:11.717Z,95143.19
2019-03-04T20:06:39.738Z,95145.63
2019-03-04T20:09:06.686Z,95138.23
2019-03-04T20:11:33.323Z,95147.52
2019-03-04T20:13:59.756Z,95149.33
2019-03-04T20:16:26.292Z,95151.07
2019-03-04T20:18:52.815Z,95151.24
2019-03-04T20:21:19.465Z,95149.94
2019-03-04T20:23:45.898Z,95158.03
2019-03-04T20:26:12.554Z,95165.59
2019-03-04T20:28:39.053Z,95168.16
2019-03-04T20:31:08.078Z,95172.34
2019-03-04T20:33:34.502Z,95162.58
2019-03-04T20:36:00.961Z,95168.31
2019-03-04T20:38:33.423Z,95175.53
2019-03-04T20:41:01.050Z,95181.65
2019-03-04T20:43:27.553Z,95186.14
2019-03-04T20:45:54.062Z,95193.27
2019-03-04T20:48:20.577Z,95182.98
2019-03-04T20:50:47.420Z,95195.16
2019-03-04T20:53:13.965Z,95195.20
2019-03-04T20:55:40.495Z,95198.55
2019-03-04T20:58:07.028Z,95198.63
2019-03-04T21:00:36.534Z,95199.48
2019-03-04T21:03:04.709Z,95199.76
2019-03-04T21:05:31.789Z,95205.91
2019-03-04T21:07:58.403Z,95213.73
2019-03-04T21:10:25.022Z,95210.19
2019-03-04T21:12:54.849Z,95212.28
2019-03-04T21:15:21.920Z,95210.57
2019-03-04T21:17:51.421Z,95218.31
2019-03-04T21:20:18.351Z,95217.55
2019-03-04T21:22:45.206Z,95225.98
2019-03-04T21:25:39.457Z,95222.10
2019-03-04T21:28:12.422Z,95224.22
2019-03-04T21:30:48.523Z,95228.67
2019-03-04T21:33:15.263Z,95227.30
2019-03-04T21:35:47.299Z,95222.04
2019-03-04T21:38:13.894Z,95225.57
2019-03-04T21:40:43.983Z,95227.95
2019-03-04T21:43:20.145Z,95223.98
2019-03-04T21:45:53.440Z,95223.98
2019-03-04T21:48:38.187Z,95225.99
2019-03-04T21:51:37.640Z,95224.17
2019-03-04T21:53:56.874Z,95221.89
2019-03-04T21:56:41.843Z,95216.21
2019-03-04T21:59:08.590Z,95213.96
2019-03-04T22:01:41.979Z,95214.67
2019-03-04T22:04:08.721Z,95209.77
2019-03-04T22:06:35.368Z,95216.01
2019-03-04T22:09:01.913Z,95215.37
2019-03-04T22:11:28.458Z,95208.33
2019-03-04T22:13:55.178Z,95209.33
2019-03-04T22:16:21.919Z,95204.80
2019-03-04T22:18:50.249Z,95211.59
2019-03-04T22:21:17.170Z,95212.81
2019-03-04T22:23:43.898Z,95203.91
2019-03-04T22:26:10.434Z,95203.19
2019-03-04T22:28:37.153Z,95201.78
2019-03-04T22:31:04.028Z,95199.83
2019-03-04T22:33:30.531Z,95202.94
2019-03-04T22:35:57.093Z,95200.81
2019-03-04T22:38:23.930Z,95206.83
2019-03-04T22:40:50.344Z,95198.42
2019-03-04T22:43:16.861Z,95195.62
2019-03-04T22:45:43.537Z,95195.45
2019-03-04T22:48:09.956Z,95209.52
2019-03-04T22:50:36.388Z,95206.92
2019-03-04T22:53:04.528Z,95206.80
2019-03-04T22:55:34.750Z,95192.98
2019-03-04T22:58:01.223Z,95198.62
2019-03-04T23:00:42.296Z,95191.26
2019-03-04T23:03:09.033Z,95184.66
2019-03-04T23:05:35.574Z,95175.16
2019-03-04T23:08:02.003Z,95179.05
2019-03-04T23:10:28.435Z,95182.56
2019-03-04T23:12:54.875Z,95177.87
2019-03-04T23:15:22.636Z,95182.28
2019-03-04T23:17:49.067Z,95171.48
2019-03-04T23:20:15.504Z,95168.98
2019-03-04T23:22:41.935Z,95181.58
2019-03-04T23:25:11.295Z,95176.89
2019-03-04T23:27:37.771Z,95175.70
2019-03-04T23:30:10.764Z,95167.09
2019-03-04T23:32:37.298Z,95170.91
2019-03-04T23:35:04.239Z,95162.61
2019-03-04T23:37:30.674Z,95162.12
2019-03-04T23:39:57.109Z,95166.02
2019-03-04T23:42:23.544Z,95163.48
2019-03-04T23:44:50.077Z,95162.70
2019-03-04T23:47:16.512Z,95170.09
2019-03-04T23:49:42.947Z,95160.52
2019-03-04T23:52:09.631Z,95165.08
2019-03-04T23:54:36.220Z,95166.09
2019-03-04T23:57:03.064Z,95162.48
2019-03-04T23:59:29.496Z,95167.40
